createdAt,value
2023-07-18T00:02:14.578Z,20.93
2023-07-18T00:04:59.063Z,21.27
2023-07-18T00:07:42.651Z,21.90
2023-07-18T00:10:25.711Z,23.10
2023-07-18T00:13:08.845Z,21.90
2023-07-18T00:15:51.920Z,22.93
2023-07-18T00:18:34.919Z,22.00
2023-07-18T00:21:19.605Z,21.80
2023-07-18T00:24:03.640Z,22.43
2023-07-18T00:26:47.701Z,22.93
2023-07-18T00:29:30.718Z,22.17
2023-07-18T00:32:14.059Z,23.63
2023-07-18T00:34:57.682Z,22.57
2023-07-18T00:37:43.171Z,23.20
2023-07-18T00:40:26.276Z,23.83
2023-07-18T00:43:15.150Z,22.93
2023-07-18T00:45:58.328Z,23.90
2023-07-18T00:48:41.551Z,24.33
2023-07-18T00:51:26.421Z,23.30
2023-07-18T00:54:11.192Z,23.70
2023-07-18T00:56:54.679Z,23.03
2023-07-18T00:59:39.412Z,22.97
2023-07-18T01:02:22.777Z,23.00
2023-07-18T01:05:07.951Z,22.30
2023-07-18T01:07:51.602Z,22.83
2023-07-18T01:10:36.298Z,23.47
2023-07-18T01:13:19.442Z,22.73
2023-07-18T01:16:02.803Z,23.00
2023-07-18T01:18:45.839Z,22.90
2023-07-18T01:21:30.281Z,24.07
2023-07-18T01:24:13.317Z,24.17
2023-07-18T01:26:56.337Z,23.43
2023-07-18T01:29:39.346Z,24.77
2023-07-18T01:32:22.363Z,23.83
2023-07-18T01:35:09.388Z,24.27
2023-07-18T01:37:54.453Z,23.87
2023-07-18T01:40:37.618Z,24.17
2023-07-18T01:43:21.202Z,25.57
2023-07-18T01:46:04.268Z,24.67
2023-07-18T01:48:47.444Z,24.10
2023-07-18T01:51:30.523Z,25.63
2023-07-18T01:54:14.967Z,25.83
2023-07-18T01:56:58.051Z,25.37
2023-07-18T01:59:41.050Z,25.97
2023-07-18T02:02:24.285Z,25.20
2023-07-18T02:05:08.055Z,24.70
2023-07-18T02:07:51.758Z,25.10
2023-07-18T02:10:36.236Z,25.43
2023-07-18T02:13:19.297Z,23.77
2023-07-18T02:16:02.350Z,24.43
2023-07-18T02:18:46.141Z,24.93
2023-07-18T02:21:30.182Z,24.43
2023-07-18T02:24:13.175Z,23.97
2023-07-18T02:26:57.637Z,24.27
2023-07-18T02:29:40.685Z,24.33
2023-07-18T02:32:23.891Z,24.77
2023-07-18T02:35:08.050Z,25.17
2023-07-18T02:37:51.062Z,25.57
2023-07-18T02:40:34.349Z,24.80
2023-07-18T02:43:18.771Z,24.53
2023-07-18T02:46:01.786Z,24.87
2023-07-18T02:48:44.955Z,24.17
2023-07-18T02:51:27.952Z,26.37
2023-07-18T02:54:11.099Z,24.47
2023-07-18T02:56:54.156Z,28.33
2023-07-18T02:59:38.995Z,27.00
2023-07-18T03:02:22.293Z,24.43
2023-07-18T03:05:05.973Z,25.50
2023-07-18T03:07:49.416Z,25.30
2023-07-18T03:10:32.528Z,25.40
2023-07-18T03:13:15.812Z,24.10
2023-07-18T03:16:00.765Z,25.63
2023-07-18T03:18:43.931Z,25.00
2023-07-18T03:21:27.065Z,25.07
2023-07-18T03:24:10.190Z,24.70
2023-07-18T03:26:53.925Z,27.57
2023-07-18T03:29:37.015Z,25.37
2023-07-18T03:32:21.415Z,26.43
2023-07-18T03:35:04.489Z,25.37
2023-07-18T03:37:47.492Z,30.03
2023-07-18T03:40:30.556Z,28.43
2023-07-18T03:43:13.651Z,27.10
2023-07-18T03:45:56.780Z,25.93
2023-07-18T03:48:41.295Z,25.73
2023-07-18T03:51:25.875Z,25.53
2023-07-18T03:54:13.415Z,27.67
2023-07-18T03:56:56.851Z,26.70
2023-07-18T03:59:39.862Z,26.33
2023-07-18T04:02:22.874Z,27.57
2023-07-18T04:05:08.170Z,27.93
2023-07-18T04:07:51.230Z,29.17
2023-07-18T04:10:34.617Z,28.40
2023-07-18T04:13:17.647Z,28.20
2023-07-18T04:16:00.735Z,27.33
2023-07-18T04:18:44.578Z,25.67
2023-07-18T04:21:29.004Z,25.40
2023-07-18T04:24:12.143Z,25.87
2023-07-18T04:26:55.165Z,26.30
2023-07-18T04:29:38.243Z,24.63
2023-07-18T04:32:21.632Z,24.07
2023-07-18T04:35:07.362Z,24.67
2023-07-18T04:37:51.950Z,25.07
2023-07-18T04:40:35.115Z,24.17
2023-07-18T04:43:18.092Z,25.63
2023-07-18T04:46:01.814Z,24.50
2023-07-18T04:48:45.230Z,27.17
2023-07-18T04:51:28.227Z,24.37
2023-07-18T04:54:12.582Z,25.30
2023-07-18T04:56:55.724Z,25.00
2023-07-18T04:59:38.783Z,25.30
2023-07-18T05:02:21.864Z,27.97
2023-07-18T05:05:05.156Z,25.67
2023-07-18T05:07:49.063Z,27.80
2023-07-18T05:10:33.507Z,26.00
2023-07-18T05:13:16.807Z,27.97
2023-07-18T05:16:02.393Z,26.83
2023-07-18T05:18:45.554Z,27.10
2023-07-18T05:21:28.726Z,27.13
2023-07-18T05:24:11.747Z,25.60
2023-07-18T05:26:56.232Z,25.43
2023-07-18T05:29:39.269Z,24.97
2023-07-18T05:32:22.425Z,24.37
2023-07-18T05:35:06.133Z,25.23
2023-07-18T05:37:49.282Z,25.27
2023-07-18T05:40:32.459Z,23.77
2023-07-18T05:43:16.940Z,24.13
2023-07-18T05:46:00.169Z,23.40
2023-07-18T05:48:43.305Z,22.73
2023-07-18T05:51:26.328Z,24.23
2023-07-18T05:54:09.408Z,23.17
2023-07-18T05:56:52.532Z,23.07
2023-07-18T05:59:37.026Z,21.83
2023-07-18T06:02:21.335Z,24.37
2023-07-18T06:05:06.186Z,24.80
2023-07-18T06:07:49.191Z,24.70
2023-07-18T06:10:32.291Z,23.90
2023-07-18T06:13:15.424Z,25.03
2023-07-18T06:15:59.839Z,24.40
2023-07-18T06:18:42.982Z,24.30
2023-07-18T06:21:27.755Z,24.53
2023-07-18T06:24:18.670Z,25.43
2023-07-18T06:27:02.838Z,25.13
2023-07-18T06:29:47.995Z,25.40
2023-07-18T06:32:32.510Z,24.80
2023-07-18T06:35:23.490Z,23.77
2023-07-18T06:38:07.344Z,24.33
2023-07-18T06:40:51.168Z,23.53
2023-07-18T06:43:34.663Z,23.90
2023-07-18T06:46:18.118Z,23.73
2023-07-18T06:49:02.625Z,23.40
2023-07-18T06:51:45.791Z,25.03
2023-07-18T06:54:28.838Z,23.03
2023-07-18T06:57:11.957Z,23.33
2023-07-18T06:59:54.979Z,23.90
2023-07-18T07:02:38.075Z,23.40
2023-07-18T07:05:22.522Z,29.53
2023-07-18T07:08:05.679Z,24.77
2023-07-18T07:10:48.987Z,24.60
2023-07-18T07:13:32.060Z,25.07
2023-07-18T07:16:15.120Z,22.97
2023-07-18T07:18:58.205Z,23.97
2023-07-18T07:21:43.629Z,23.87
2023-07-18T07:24:26.785Z,25.07
2023-07-18T07:27:10.353Z,24.17
2023-07-18T07:29:53.815Z,25.40
2023-07-18T07:32:37.067Z,24.37
2023-07-18T07:35:20.681Z,24.83
2023-07-18T07:38:05.155Z,27.40
2023-07-18T07:40:48.484Z,26.77
2023-07-18T07:43:31.605Z,26.67
2023-07-18T07:46:14.858Z,27.07
2023-07-18T07:48:58.096Z,25.67
2023-07-18T07:51:41.227Z,26.80
2023-07-18T07:54:25.652Z,24.97
2023-07-18T07:57:08.877Z,25.77
2023-07-18T07:59:52.509Z,25.27
2023-07-18T08:02:35.813Z,25.13
2023-07-18T08:05:19.165Z,23.87
2023-07-18T08:08:02.533Z,22.10
2023-07-18T08:10:47.381Z,22.57
2023-07-18T08:13:30.496Z,21.70
2023-07-18T08:16:13.644Z,22.50
2023-07-18T08:18:56.792Z,20.93
2023-07-18T08:21:39.904Z,21.13
2023-07-18T08:24:23.014Z,20.90
2023-07-18T08:27:08.652Z,21.23
2023-07-18T08:29:51.720Z,20.52
2023-07-18T08:32:34.789Z,19.75
2023-07-18T08:35:18.067Z,19.58
2023-07-18T08:38:01.131Z,19.40
2023-07-18T08:40:45.117Z,19.70
2023-07-18T08:43:29.896Z,18.65
2023-07-18T08:46:15.509Z,18.13
2023-07-18T08:48:58.992Z,19.55
2023-07-18T08:51:43.035Z,19.00
2023-07-18T08:54:26.123Z,18.75
2023-07-18T08:57:09.407Z,18.83
2023-07-18T08:59:54.384Z,17.98
2023-07-18T09:02:38.726Z,17.75
2023-07-18T09:05:32.995Z,18.10
2023-07-18T09:08:16.112Z,17.83
2023-07-18T09:11:03.597Z,18.83
2023-07-18T09:13:46.691Z,18.08
2023-07-18T09:16:31.148Z,19.35
2023-07-18T09:19:14.697Z,20.98
2023-07-18T09:22:01.058Z,22.38
2023-07-18T09:24:46.662Z,22.30
2023-07-18T09:27:31.492Z,21.38
2023-07-18T09:30:16.835Z,21.33
2023-07-18T09:33:04.688Z,20.70
2023-07-18T09:35:47.800Z,20.00
2023-07-18T09:38:31.051Z,19.85
2023-07-18T09:41:14.412Z,17.05
2023-07-18T09:44:13.998Z,16.27
2023-07-18T09:47:01.761Z,16.50
2023-07-18T09:49:47.127Z,15.90
2023-07-18T09:52:32.133Z,17.63
2023-07-18T09:55:16.277Z,18.55
2023-07-18T09:58:01.751Z,18.85
2023-07-18T10:00:48.176Z,19.00
2023-07-18T10:03:33.908Z,18.30
2023-07-18T10:06:18.840Z,16.80
2023-07-18T10:09:03.609Z,16.90
2023-07-18T10:12:14.169Z,17.60
2023-07-18T10:14:58.984Z,16.48
2023-07-18T10:17:42.936Z,15.32
2023-07-18T10:20:34.081Z,15.70
2023-07-18T10:23:19.667Z,16.40
2023-07-18T10:26:10.055Z,14.48
2023-07-18T10:29:01.647Z,14.90
2023-07-18T10:31:45.225Z,14.55
2023-07-18T10:34:28.708Z,14.18
2023-07-18T10:37:11.925Z,14.85
2023-07-18T10:39:57.234Z,14.52
2023-07-18T10:42:45.142Z,14.80
2023-07-18T10:45:28.452Z,14.55
2023-07-18T10:48:13.746Z,14.82
2023-07-18T10:50:57.451Z,15.75
2023-07-18T10:53:42.104Z,14.00
2023-07-18T10:56:26.744Z,13.27
2023-07-18T10:59:09.771Z,11.80
2023-07-18T11:01:52.802Z,12.32
2023-07-18T11:04:35.934Z,11.27
2023-07-18T11:07:19.204Z,10.10
2023-07-18T11:10:02.740Z,9.87
2023-07-18T11:12:47.282Z,10.33
2023-07-18T11:15:30.681Z,9.43
2023-07-18T11:18:13.791Z,10.47
2023-07-18T11:20:56.956Z,9.70
2023-07-18T11:23:41.536Z,13.80
2023-07-18T11:26:24.666Z,11.27
2023-07-18T11:29:10.526Z,10.53
2023-07-18T11:31:54.279Z,10.53
2023-07-18T11:34:37.389Z,12.57
2023-07-18T11:37:23.987Z,9.80
2023-07-18T11:40:08.078Z,9.63
2023-07-18T11:42:52.715Z,10.50
2023-07-18T11:45:37.201Z,9.90
2023-07-18T11:48:21.666Z,9.57
2023-07-18T11:51:06.297Z,9.40
2023-07-18T11:53:49.464Z,9.07
2023-07-18T11:56:33.130Z,9.90
2023-07-18T11:59:16.142Z,9.67
2023-07-18T12:02:00.625Z,8.87
2023-07-18T12:04:43.786Z,9.37
2023-07-18T12:07:27.169Z,10.00
2023-07-18T12:10:11.550Z,10.07
2023-07-18T12:12:54.961Z,12.53
2023-07-18T12:15:38.707Z,16.17
2023-07-18T12:18:23.410Z,11.07
2023-07-18T12:21:07.327Z,10.30
2023-07-18T12:23:51.344Z,10.50
2023-07-18T12:26:38.458Z,9.77
2023-07-18T12:29:23.618Z,9.70
2023-07-18T12:32:07.944Z,11.07
2023-07-18T12:34:52.461Z,9.80
2023-07-18T12:37:35.639Z,8.80
2023-07-18T12:40:21.756Z,9.80
2023-07-18T12:43:05.800Z,10.10
2023-07-18T12:45:49.041Z,10.10
2023-07-18T12:48:32.141Z,12.37
2023-07-18T12:51:16.921Z,9.90
2023-07-18T12:54:01.618Z,11.10
2023-07-18T12:56:44.828Z,10.07
2023-07-18T12:59:29.840Z,11.40
2023-07-18T13:02:14.538Z,10.63
2023-07-18T13:04:59.156Z,11.27
2023-07-18T13:07:43.788Z,11.83
2023-07-18T13:10:28.758Z,10.53
2023-07-18T13:13:12.595Z,10.53
2023-07-18T13:15:55.672Z,10.07
2023-07-18T13:18:38.761Z,10.80
2023-07-18T13:21:21.908Z,10.47
2023-07-18T13:24:07.344Z,10.40
2023-07-18T13:26:50.712Z,10.67
2023-07-18T13:29:33.993Z,10.40
2023-07-18T13:32:17.859Z,10.73
2023-07-18T13:35:01.847Z,10.00
2023-07-18T13:37:46.158Z,9.93
2023-07-18T13:40:31.580Z,10.50
2023-07-18T13:43:14.929Z,10.70
2023-07-18T13:45:58.664Z,10.70
2023-07-18T13:48:42.597Z,13.77
2023-07-18T13:51:26.874Z,10.27
2023-07-18T13:54:10.101Z,10.27
2023-07-18T13:56:54.637Z,10.13
2023-07-18T13:59:37.716Z,10.40
2023-07-18T14:02:20.883Z,10.40
2023-07-18T14:05:06.584Z,10.00
2023-07-18T14:07:50.097Z,10.17
2023-07-18T14:10:33.376Z,9.63
2023-07-18T14:13:17.916Z,9.90
2023-07-18T14:16:01.898Z,9.50
2023-07-18T14:18:45.825Z,9.63
2023-07-18T14:21:29.762Z,9.27
2023-07-18T14:24:14.547Z,9.47
2023-07-18T14:26:57.810Z,11.17
2023-07-18T14:29:42.379Z,10.20
2023-07-18T14:32:26.306Z,11.07
2023-07-18T14:35:11.724Z,11.00
2023-07-18T14:37:54.980Z,12.87
2023-07-18T14:40:38.889Z,10.43
2023-07-18T14:43:24.548Z,12.40
2023-07-18T14:46:09.474Z,8.73
2023-07-18T14:48:53.341Z,10.60
2023-07-18T14:51:38.090Z,9.07
2023-07-18T14:54:21.741Z,8.60
2023-07-18T14:57:05.168Z,9.17
2023-07-18T14:59:51.170Z,9.07
2023-07-18T15:02:36.756Z,9.03
2023-07-18T15:05:20.084Z,8.77
2023-07-18T15:08:05.675Z,8.70
2023-07-18T15:10:49.578Z,9.10
2023-07-18T15:13:32.841Z,8.00
2023-07-18T15:16:16.038Z,8.77
2023-07-18T15:19:00.605Z,8.83
2023-07-18T15:21:43.782Z,8.60
2023-07-18T15:24:27.710Z,9.50
2023-07-18T15:27:14.221Z,9.43
2023-07-18T15:29:57.996Z,10.40
2023-07-18T15:32:43.328Z,9.93
2023-07-18T15:35:30.345Z,9.60
2023-07-18T15:38:14.416Z,9.80
2023-07-18T15:40:57.869Z,10.97
2023-07-18T15:43:44.251Z,9.73
2023-07-18T15:46:28.822Z,9.70
2023-07-18T15:49:12.353Z,10.23
2023-07-18T15:51:57.847Z,10.30
2023-07-18T15:54:41.138Z,12.73
2023-07-18T15:57:24.937Z,9.07
2023-07-18T16:00:10.190Z,9.87
2023-07-18T16:02:53.463Z,11.70
2023-07-18T16:05:37.394Z,9.67
2023-07-18T16:08:22.076Z,9.47
2023-07-18T16:11:05.898Z,9.70
2023-07-18T16:13:49.987Z,9.70
2023-07-18T16:16:33.552Z,10.17
2023-07-18T16:19:17.686Z,13.50
2023-07-18T16:22:01.698Z,8.97
2023-07-18T16:24:48.025Z,9.50
2023-07-18T16:27:32.414Z,11.07
2023-07-18T16:30:16.877Z,9.50
2023-07-18T16:33:00.180Z,12.93
2023-07-18T16:35:43.406Z,9.33
2023-07-18T16:38:30.232Z,9.43
2023-07-18T16:41:14.954Z,9.57
2023-07-18T16:43:58.194Z,9.47
2023-07-18T16:46:43.335Z,9.17
2023-07-18T16:49:27.066Z,11.53
2023-07-18T16:52:15.228Z,9.13
2023-07-18T16:54:58.532Z,10.10
2023-07-18T16:57:42.993Z,10.23
2023-07-18T17:00:26.823Z,10.70
2023-07-18T17:03:11.098Z,11.40
2023-07-18T17:05:55.229Z,9.53
2023-07-18T17:08:39.148Z,10.40
2023-07-18T17:11:23.974Z,11.00
2023-07-18T17:14:09.970Z,10.70
2023-07-18T17:16:53.891Z,14.47
2023-07-18T17:19:52.637Z,13.50
2023-07-18T17:22:41.518Z,10.93
2023-07-18T17:25:25.442Z,10.73
2023-07-18T17:28:09.365Z,17.53
2023-07-18T17:30:55.719Z,11.27
2023-07-18T17:33:39.876Z,11.33
2023-07-18T17:36:24.030Z,10.40
2023-07-18T17:39:08.933Z,11.57
2023-07-18T17:41:52.974Z,11.90
2023-07-18T17:44:37.536Z,13.20
2023-07-18T17:47:22.211Z,11.60
2023-07-18T17:50:06.560Z,11.97
2023-07-18T17:52:50.737Z,13.57
2023-07-18T17:55:34.131Z,12.90
2023-07-18T17:58:18.828Z,40.27
2023-07-18T18:01:02.939Z,13.67
2023-07-18T18:03:47.790Z,13.83
2023-07-18T18:06:31.004Z,14.87
2023-07-18T18:09:14.978Z,13.87
2023-07-18T18:11:58.345Z,20.27
2023-07-18T18:14:41.552Z,14.53
2023-07-18T18:17:24.719Z,13.30
2023-07-18T18:20:11.424Z,13.27
2023-07-18T18:22:54.547Z,20.13
2023-07-18T18:25:37.929Z,21.17
2023-07-18T18:28:22.921Z,17.13
2023-07-18T18:31:06.994Z,17.77
2023-07-18T18:33:50.174Z,16.73
2023-07-18T18:36:35.050Z,12.60
2023-07-18T18:39:18.667Z,12.67
2023-07-18T18:42:02.562Z,15.37
2023-07-18T18:44:46.653Z,15.13
2023-07-18T18:47:29.733Z,13.67
2023-07-18T18:50:13.152Z,24.03
2023-07-18T18:52:57.675Z,33.73
2023-07-18T18:55:40.854Z,15.03
2023-07-18T18:58:24.108Z,12.20
2023-07-18T19:01:07.207Z,11.83
2023-07-18T19:03:50.286Z,12.43
2023-07-18T19:06:33.356Z,13.07
2023-07-18T19:09:19.321Z,11.80
2023-07-18T19:12:02.348Z,14.03
2023-07-18T19:14:45.826Z,12.80
2023-07-18T19:17:29.086Z,11.80
2023-07-18T19:20:13.530Z,12.23
2023-07-18T19:22:57.165Z,12.27
2023-07-18T19:25:41.726Z,12.87
2023-07-18T19:28:24.758Z,11.87
2023-07-18T19:31:07.961Z,12.67
2023-07-18T19:33:51.141Z,13.20
2023-07-18T19:36:35.830Z,12.77
2023-07-18T19:39:19.602Z,12.70
2023-07-18T19:42:04.237Z,12.63
2023-07-18T19:44:48.497Z,14.13
2023-07-18T19:47:32.907Z,13.07
2023-07-18T19:50:16.141Z,12.60
2023-07-18T19:52:59.309Z,13.03
2023-07-18T19:55:42.488Z,12.50
2023-07-18T19:58:27.531Z,13.07
2023-07-18T20:01:10.654Z,13.97
2023-07-18T20:03:59.178Z,13.43
2023-07-18T20:06:43.308Z,12.63
2023-07-18T20:09:26.338Z,12.87
2023-07-18T20:12:10.668Z,12.33
2023-07-18T20:14:55.803Z,13.17
2023-07-18T20:17:38.946Z,13.00
2023-07-18T20:20:22.308Z,13.17
2023-07-18T20:23:05.918Z,12.17
2023-07-18T20:25:49.077Z,13.80
2023-07-18T20:28:32.904Z,12.50
2023-07-18T20:31:17.802Z,14.47
2023-07-18T20:34:01.212Z,14.33
2023-07-18T20:36:44.339Z,12.10
2023-07-18T20:39:27.415Z,11.97
2023-07-18T20:42:10.647Z,12.20
2023-07-18T20:44:53.729Z,12.47
2023-07-18T20:47:40.147Z,12.73
2023-07-18T20:50:23.762Z,12.37
2023-07-18T20:53:06.910Z,13.13
2023-07-18T20:55:50.174Z,12.80
2023-07-18T20:58:33.880Z,13.17
2023-07-18T21:01:17.096Z,12.43
2023-07-18T21:04:01.849Z,12.47
2023-07-18T21:06:45.204Z,14.33
2023-07-18T21:09:28.339Z,12.27
2023-07-18T21:12:11.863Z,13.83
2023-07-18T21:14:55.119Z,16.23
2023-07-18T21:17:38.339Z,12.47
2023-07-18T21:20:23.075Z,12.20
2023-07-18T21:23:06.193Z,12.73
2023-07-18T21:25:49.487Z,12.27
2023-07-18T21:28:32.539Z,12.37
2023-07-18T21:31:15.738Z,12.87
2023-07-18T21:33:58.809Z,12.03
2023-07-18T21:36:43.654Z,12.17
2023-07-18T21:39:26.727Z,12.03
2023-07-18T21:42:09.826Z,11.97
2023-07-18T21:44:52.888Z,12.73
2023-07-18T21:47:36.041Z,12.87
2023-07-18T21:50:19.245Z,11.73
2023-07-18T21:53:03.790Z,12.37
2023-07-18T21:55:46.852Z,13.30
2023-07-18T21:58:29.857Z,12.57
2023-07-18T22:01:12.999Z,12.23
2023-07-18T22:03:56.214Z,11.93
2023-07-18T22:06:39.218Z,12.00
2023-07-18T22:09:23.682Z,12.40
2023-07-18T22:12:07.844Z,12.57
2023-07-18T22:14:51.496Z,12.17
2023-07-18T22:17:34.767Z,12.33
2023-07-18T22:20:17.992Z,12.80
2023-07-18T22:23:01.140Z,12.40
2023-07-18T22:25:48.574Z,12.60
2023-07-18T22:28:39.288Z,12.23
2023-07-18T22:31:22.611Z,12.07
2023-07-18T22:34:05.940Z,12.17
2023-07-18T22:36:49.031Z,11.93
2023-07-18T22:39:36.258Z,12.10
2023-07-18T22:42:23.727Z,11.70
2023-07-18T22:45:07.639Z,12.07
2023-07-18T22:47:50.808Z,11.80
2023-07-18T22:50:34.062Z,12.03
2023-07-18T22:53:17.186Z,12.70
2023-07-18T22:56:00.251Z,11.97
2023-07-18T22:58:45.069Z,11.93
2023-07-18T23:01:28.419Z,12.07
2023-07-18T23:04:11.585Z,12.47
2023-07-18T23:06:54.635Z,11.83
2023-07-18T23:09:37.803Z,12.07
2023-07-18T23:12:20.856Z,11.77
2023-07-18T23:15:05.825Z,10.83
2023-07-18T23:17:48.970Z,12.30
2023-07-18T23:20:32.164Z,12.73
2023-07-18T23:23:15.338Z,12.40
2023-07-18T23:25:58.538Z,12.17
2023-07-18T23:28:41.526Z,11.73
2023-07-18T23:31:26.141Z,12.27
2023-07-18T23:34:09.187Z,11.33
2023-07-18T23:36:52.295Z,12.10
2023-07-18T23:39:35.539Z,11.83
2023-07-18T23:42:18.659Z,11.73
2023-07-18T23:45:02.026Z,12.27
2023-07-18T23:47:46.591Z,12.60
2023-07-18T23:50:30.624Z,11.57
2023-07-18T23:53:13.669Z,11.40
2023-07-18T23:55:56.798Z,12.30
2023-07-18T23:58:39.882Z,11.30
